sensor_id;sensor_type;location;lat;lon;timestamp;P1;durP1;ratioP1;P2;durP2;ratioP2
62931;SDS011;49037;41.898;25.004;2023-10-13T00:00:31;3.50;;;2.85;;
62931;SDS011;49037;41.898;25.004;2023-10-13T00:03:01;4.05;;;2.60;;
62931;SDS011;49037;41.898;25.004;2023-10-13T00:05:28;4.75;;;2.75;;
62931;SDS011;49037;41.898;25.004;2023-10-13T00:07:58;2.83;;;2.60;;
62931;SDS011;49037;41.898;25.004;2023-10-13T00:10:31;4.72;;;2.90;;
62931;SDS011;49037;41.898;25.004;2023-10-13T00:12:57;3.38;;;2.65;;
62931;SDS011;49037;41.898;25.004;2023-10-13T00:15:41;3.88;;;2.50;;
62931;SDS011;49037;41.898;25.004;2023-10-13T00:18:25;3.72;;;2.83;;
62931;SDS011;49037;41.898;25.004;2023-10-13T00:21:08;3.10;;;2.83;;
62931;SDS011;49037;41.898;25.004;2023-10-13T00:23:42;4.38;;;2.63;;
62931;SDS011;49037;41.898;25.004;2023-10-13T00:26:18;2.80;;;2.60;;
62931;SDS011;49037;41.898;25.004;2023-10-13T00:28:44;3.40;;;2.85;;
62931;SDS011;49037;41.898;25.004;2023-10-13T00:31:12;5.15;;;3.05;;
62931;SDS011;49037;41.898;25.004;2023-10-13T00:36:08;2.97;;;2.58;;
62931;SDS011;49037;41.898;25.004;2023-10-13T00:38:42;3.45;;;2.42;;
62931;SDS011;49037;41.898;25.004;2023-10-13T00:41:07;2.72;;;2.42;;
62931;SDS011;49037;41.898;25.004;2023-10-13T00:43:46;3.42;;;2.92;;
62931;SDS011;49037;41.898;25.004;2023-10-13T00:46:32;2.88;;;2.40;;
62931;SDS011;49037;41.898;25.004;2023-10-13T00:49:00;6.93;;;3.05;;
62931;SDS011;49037;41.898;25.004;2023-10-13T00:54:24;5.82;;;2.70;;
62931;SDS011;49037;41.898;25.004;2023-10-13T00:56:52;3.78;;;2.75;;
62931;SDS011;49037;41.898;25.004;2023-10-13T00:59:29;5.70;;;2.92;;
62931;SDS011;49037;41.898;25.004;2023-10-13T01:02:04;4.20;;;3.03;;
62931;SDS011;49037;41.898;25.004;2023-10-13T01:04:49;3.67;;;2.78;;
62931;SDS011;49037;41.898;25.004;2023-10-13T01:07:15;3.75;;;2.80;;
62931;SDS011;49037;41.898;25.004;2023-10-13T01:09:47;3.53;;;2.88;;
62931;SDS011;49037;41.898;25.004;2023-10-13T01:12:15;3.20;;;2.72;;
62931;SDS011;49037;41.898;25.004;2023-10-13T01:14:41;4.85;;;2.92;;
62931;SDS011;49037;41.898;25.004;2023-10-13T01:17:06;3.13;;;2.67;;
62931;SDS011;49037;41.898;25.004;2023-10-13T01:19:35;3.47;;;2.72;;
62931;SDS011;49037;41.898;25.004;2023-10-13T01:22:04;4.00;;;2.90;;
62931;SDS011;49037;41.898;25.004;2023-10-13T01:24:31;3.90;;;2.50;;
62931;SDS011;49037;41.898;25.004;2023-10-13T01:27:02;3.03;;;2.70;;
62931;SDS011;49037;41.898;25.004;2023-10-13T01:29:45;3.53;;;2.72;;
62931;SDS011;49037;41.898;25.004;2023-10-13T01:32:16;3.25;;;2.83;;
62931;SDS011;49037;41.898;25.004;2023-10-13T01:34:43;3.45;;;2.58;;
62931;SDS011;49037;41.898;25.004;2023-10-13T01:37:14;4.47;;;2.83;;
62931;SDS011;49037;41.898;25.004;2023-10-13T01:39:43;3.25;;;2.60;;
62931;SDS011;49037;41.898;25.004;2023-10-13T01:42:15;5.00;;;2.95;;
62931;SDS011;49037;41.898;25.004;2023-10-13T01:45:07;4.32;;;3.08;;
62931;SDS011;49037;41.898;25.004;2023-10-13T01:47:33;4.60;;;3.00;;
62931;SDS011;49037;41.898;25.004;2023-10-13T01:49:58;2.90;;;2.58;;
62931;SDS011;49037;41.898;25.004;2023-10-13T01:52:33;3.95;;;2.88;;
62931;SDS011;49037;41.898;25.004;2023-10-13T01:55:00;2.92;;;2.60;;
62931;SDS011;49037;41.898;25.004;2023-10-13T01:57:26;3.97;;;3.08;;
62931;SDS011;49037;41.898;25.004;2023-10-13T01:59:54;4.10;;;3.00;;
62931;SDS011;49037;41.898;25.004;2023-10-13T02:02:31;5.30;;;3.20;;
62931;SDS011;49037;41.898;25.004;2023-10-13T02:04:56;4.05;;;2.88;;
62931;SDS011;49037;41.898;25.004;2023-10-13T02:07:25;5.65;;;3.05;;
62931;SDS011;49037;41.898;25.004;2023-10-13T02:09:59;3.83;;;2.95;;
62931;SDS011;49037;41.898;25.004;2023-10-13T02:12:30;4.10;;;3.10;;
62931;SDS011;49037;41.898;25.004;2023-10-13T02:15:21;3.38;;;2.90;;
62931;SDS011;49037;41.898;25.004;2023-10-13T02:17:47;3.58;;;2.85;;
62931;SDS011;49037;41.898;25.004;2023-10-13T02:20:22;3.20;;;2.80;;
62931;SDS011;49037;41.898;25.004;2023-10-13T02:22:49;3.40;;;3.00;;
62931;SDS011;49037;41.898;25.004;2023-10-13T02:25:18;3.95;;;3.15;;
62931;SDS011;49037;41.898;25.004;2023-10-13T02:28:04;4.03;;;3.17;;
62931;SDS011;49037;41.898;25.004;2023-10-13T02:30:39;4.28;;;3.25;;
62931;SDS011;49037;41.898;25.004;2023-10-13T02:33:14;3.20;;;2.78;;
62931;SDS011;49037;41.898;25.004;2023-10-13T02:35:41;3.65;;;3.20;;
62931;SDS011;49037;41.898;25.004;2023-10-13T02:38:08;7.38;;;3.25;;
62931;SDS011;49037;41.898;25.004;2023-10-13T02:40:37;4.63;;;3.35;;
62931;SDS011;49037;41.898;25.004;2023-10-13T02:43:04;5.68;;;2.97;;
62931;SDS011;49037;41.898;25.004;2023-10-13T02:45:31;4.10;;;3.08;;
62931;SDS011;49037;41.898;25.004;2023-10-13T02:47:57;3.35;;;2.95;;
62931;SDS011;49037;41.898;25.004;2023-10-13T02:50:39;4.45;;;3.05;;
62931;SDS011;49037;41.898;25.004;2023-10-13T02:53:09;3.15;;;2.75;;
62931;SDS011;49037;41.898;25.004;2023-10-13T02:55:38;4.93;;;3.00;;
62931;SDS011;49037;41.898;25.004;2023-10-13T02:58:15;4.05;;;2.83;;
62931;SDS011;49037;41.898;25.004;2023-10-13T03:00:40;5.47;;;3.10;;
62931;SDS011;49037;41.898;25.004;2023-10-13T03:03:06;3.58;;;2.80;;
62931;SDS011;49037;41.898;25.004;2023-10-13T03:05:35;4.95;;;3.40;;
62931;SDS011;49037;41.898;25.004;2023-10-13T03:08:04;5.85;;;3.53;;
62931;SDS011;49037;41.898;25.004;2023-10-13T03:10:31;5.68;;;3.28;;
62931;SDS011;49037;41.898;25.004;2023-10-13T03:12:57;4.43;;;3.10;;
62931;SDS011;49037;41.898;25.004;2023-10-13T03:15:24;7.07;;;3.67;;
62931;SDS011;49037;41.898;25.004;2023-10-13T03:17:56;4.00;;;3.25;;
62931;SDS011;49037;41.898;25.004;2023-10-13T03:20:24;4.57;;;3.25;;
62931;SDS011;49037;41.898;25.004;2023-10-13T03:22:56;4.28;;;3.17;;
62931;SDS011;49037;41.898;25.004;2023-10-13T03:25:25;4.18;;;3.13;;
62931;SDS011;49037;41.898;25.004;2023-10-13T03:27:53;4.68;;;2.88;;
62931;SDS011;49037;41.898;25.004;2023-10-13T03:30:19;4.85;;;3.50;;
62931;SDS011;49037;41.898;25.004;2023-10-13T03:32:46;6.13;;;3.30;;
62931;SDS011;49037;41.898;25.004;2023-10-13T03:35:13;5.63;;;3.63;;
62931;SDS011;49037;41.898;25.004;2023-10-13T03:37:49;4.78;;;3.40;;
62931;SDS011;49037;41.898;25.004;2023-10-13T03:40:14;6.20;;;3.80;;
62931;SDS011;49037;41.898;25.004;2023-10-13T03:42:52;7.22;;;3.33;;
62931;SDS011;49037;41.898;25.004;2023-10-13T03:45:41;4.53;;;3.38;;
62931;SDS011;49037;41.898;25.004;2023-10-13T03:48:16;5.78;;;3.47;;
62931;SDS011;49037;41.898;25.004;2023-10-13T03:51:05;7.32;;;3.80;;
62931;SDS011;49037;41.898;25.004;2023-10-13T03:53:40;6.22;;;3.60;;
62931;SDS011;49037;41.898;25.004;2023-10-13T03:56:21;5.60;;;3.60;;
62931;SDS011;49037;41.898;25.004;2023-10-13T03:58:59;4.50;;;2.97;;
62931;SDS011;49037;41.898;25.004;2023-10-13T04:01:33;4.80;;;3.20;;
62931;SDS011;49037;41.898;25.004;2023-10-13T04:04:11;5.20;;;3.40;;
62931;SDS011;49037;41.898;25.004;2023-10-13T04:07:20;5.43;;;3.60;;
62931;SDS011;49037;41.898;25.004;2023-10-13T04:10:08;6.25;;;3.45;;
62931;SDS011;49037;41.898;25.004;2023-10-13T04:13:06;5.85;;;3.95;;
62931;SDS011;49037;41.898;25.004;2023-10-13T04:15:53;10.38;;;3.53;;
62931;SDS011;49037;41.898;25.004;2023-10-13T04:18:40;5.15;;;3.30;;
62931;SDS011;49037;41.898;25.004;2023-10-13T04:21:23;5.25;;;3.88;;
62931;SDS011;49037;41.898;25.004;2023-10-13T04:27:35;5.63;;;3.50;;
62931;SDS011;49037;41.898;25.004;2023-10-13T04:33:06;7.35;;;3.78;;
62931;SDS011;49037;41.898;25.004;2023-10-13T04:46:57;6.70;;;4.22;;
62931;SDS011;49037;41.898;25.004;2023-10-13T04:49:48;6.80;;;3.80;;
62931;SDS011;49037;41.898;25.004;2023-10-13T04:52:25;5.45;;;3.60;;
62931;SDS011;49037;41.898;25.004;2023-10-13T04:55:09;4.93;;;3.38;;
62931;SDS011;49037;41.898;25.004;2023-10-13T04:58:08;5.10;;;3.42;;
62931;SDS011;49037;41.898;25.004;2023-10-13T05:00:54;6.18;;;3.67;;
62931;SDS011;49037;41.898;25.004;2023-10-13T05:03:38;6.07;;;3.72;;
62931;SDS011;49037;41.898;25.004;2023-10-13T05:06:19;4.63;;;3.50;;
62931;SDS011;49037;41.898;25.004;2023-10-13T05:09:03;6.15;;;4.47;;
62931;SDS011;49037;41.898;25.004;2023-10-13T05:11:49;6.13;;;3.78;;
62931;SDS011;49037;41.898;25.004;2023-10-13T05:14:33;7.30;;;3.92;;
62931;SDS011;49037;41.898;25.004;2023-10-13T05:17:19;6.13;;;3.50;;
62931;SDS011;49037;41.898;25.004;2023-10-13T05:20:06;6.18;;;3.72;;
62931;SDS011;49037;41.898;25.004;2023-10-13T05:22:54;4.88;;;3.40;;
62931;SDS011;49037;41.898;25.004;2023-10-13T05:25:38;3.90;;;3.33;;
62931;SDS011;49037;41.898;25.004;2023-10-13T05:28:22;6.78;;;4.18;;
62931;SDS011;49037;41.898;25.004;2023-10-13T05:31:06;6.38;;;4.45;;
62931;SDS011;49037;41.898;25.004;2023-10-13T05:34:05;7.72;;;4.30;;
62931;SDS011;49037;41.898;25.004;2023-10-13T05:36:57;7.97;;;4.50;;
62931;SDS011;49037;41.898;25.004;2023-10-13T05:39:41;7.78;;;3.97;;
62931;SDS011;49037;41.898;25.004;2023-10-13T05:42:25;6.05;;;4.03;;
62931;SDS011;49037;41.898;25.004;2023-10-13T05:45:09;7.30;;;4.45;;
62931;SDS011;49037;41.898;25.004;2023-10-13T05:47:44;6.03;;;4.25;;
62931;SDS011;49037;41.898;25.004;2023-10-13T05:50:34;6.82;;;4.30;;
62931;SDS011;49037;41.898;25.004;2023-10-13T05:53:35;4.47;;;4.00;;
62931;SDS011;49037;41.898;25.004;2023-10-13T05:56:23;7.22;;;4.13;;
62931;SDS011;49037;41.898;25.004;2023-10-13T05:59:07;5.68;;;3.75;;
62931;SDS011;49037;41.898;25.004;2023-10-13T06:01:51;7.80;;;4.47;;
62931;SDS011;49037;41.898;25.004;2023-10-13T06:04:48;9.13;;;4.63;;
62931;SDS011;49037;41.898;25.004;2023-10-13T06:07:36;5.32;;;3.97;;
62931;SDS011;49037;41.898;25.004;2023-10-13T06:10:19;7.72;;;4.32;;
62931;SDS011;49037;41.898;25.004;2023-10-13T06:13:03;6.53;;;3.90;;
62931;SDS011;49037;41.898;25.004;2023-10-13T06:15:47;6.25;;;4.07;;
62931;SDS011;49037;41.898;25.004;2023-10-13T06:18:33;3.97;;;3.53;;
62931;SDS011;49037;41.898;25.004;2023-10-13T06:21:18;6.93;;;4.13;;
62931;SDS011;49037;41.898;25.004;2023-10-13T06:24:03;8.07;;;4.65;;
62931;SDS011;49037;41.898;25.004;2023-10-13T06:26:48;7.82;;;4.65;;
62931;SDS011;49037;41.898;25.004;2023-10-13T06:29:32;8.25;;;4.32;;
62931;SDS011;49037;41.898;25.004;2023-10-13T06:31:58;8.90;;;5.07;;
62931;SDS011;49037;41.898;25.004;2023-10-13T06:34:29;8.10;;;4.80;;
62931;SDS011;49037;41.898;25.004;2023-10-13T06:37:16;9.00;;;4.70;;
62931;SDS011;49037;41.898;25.004;2023-10-13T06:39:55;8.65;;;6.50;;
62931;SDS011;49037;41.898;25.004;2023-10-13T06:42:44;6.25;;;3.85;;
62931;SDS011;49037;41.898;25.004;2023-10-13T06:45:09;6.28;;;3.63;;
62931;SDS011;49037;41.898;25.004;2023-10-13T06:47:36;6.38;;;3.72;;
62931;SDS011;49037;41.898;25.004;2023-10-13T06:50:10;5.28;;;3.85;;
62931;SDS011;49037;41.898;25.004;2023-10-13T06:52:47;7.40;;;4.20;;
62931;SDS011;49037;41.898;25.004;2023-10-13T06:55:13;6.70;;;4.20;;
62931;SDS011;49037;41.898;25.004;2023-10-13T06:58:03;7.82;;;3.88;;
62931;SDS011;49037;41.898;25.004;2023-10-13T07:00:48;7.30;;;4.20;;
62931;SDS011;49037;41.898;25.004;2023-10-13T07:03:21;7.32;;;4.20;;
62931;SDS011;49037;41.898;25.004;2023-10-13T07:05:50;6.07;;;3.60;;
62931;SDS011;49037;41.898;25.004;2023-10-13T07:09:13;6.13;;;3.92;;
62931;SDS011;49037;41.898;25.004;2023-10-13T07:12:58;12.30;;;3.95;;
62931;SDS011;49037;41.898;25.004;2023-10-13T07:15:25;7.50;;;3.67;;
62931;SDS011;49037;41.898;25.004;2023-10-13T07:17:54;11.68;;;4.00;;
62931;SDS011;49037;41.898;25.004;2023-10-13T07:20:30;4.82;;;3.65;;
62931;SDS011;49037;41.898;25.004;2023-10-13T07:22:55;6.35;;;3.67;;
62931;SDS011;49037;41.898;25.004;2023-10-13T07:25:52;10.10;;;3.92;;
62931;SDS011;49037;41.898;25.004;2023-10-13T07:28:21;6.90;;;4.10;;
62931;SDS011;49037;41.898;25.004;2023-10-13T07:30:49;7.72;;;3.58;;
62931;SDS011;49037;41.898;25.004;2023-10-13T07:33:35;4.93;;;3.53;;
62931;SDS011;49037;41.898;25.004;2023-10-13T07:36:01;6.85;;;4.10;;
62931;SDS011;49037;41.898;25.004;2023-10-13T07:40:52;7.97;;;4.05;;
62931;SDS011;49037;41.898;25.004;2023-10-13T07:43:21;7.53;;;4.00;;
62931;SDS011;49037;41.898;25.004;2023-10-13T07:45:49;4.72;;;3.70;;
62931;SDS011;49037;41.898;25.004;2023-10-13T07:49:17;7.68;;;4.10;;
62931;SDS011;49037;41.898;25.004;2023-10-13T07:51:46;8.02;;;3.35;;
62931;SDS011;49037;41.898;25.004;2023-10-13T07:54:14;7.18;;;4.03;;
62931;SDS011;49037;41.898;25.004;2023-10-13T07:56:57;5.13;;;3.58;;
62931;SDS011;49037;41.898;25.004;2023-10-13T07:59:23;5.90;;;3.70;;
62931;SDS011;49037;41.898;25.004;2023-10-13T08:01:49;5.07;;;3.47;;
62931;SDS011;49037;41.898;25.004;2023-10-13T08:04:34;9.35;;;5.18;;
62931;SDS011;49037;41.898;25.004;2023-10-13T08:07:03;8.90;;;4.65;;
62931;SDS011;49037;41.898;25.004;2023-10-13T08:09:38;5.03;;;3.42;;
62931;SDS011;49037;41.898;25.004;2023-10-13T08:12:16;7.30;;;3.97;;
62931;SDS011;49037;41.898;25.004;2023-10-13T08:16:01;6.68;;;4.00;;
62931;SDS011;49037;41.898;25.004;2023-10-13T08:18:32;4.43;;;3.80;;
62931;SDS011;49037;41.898;25.004;2023-10-13T08:21:13;4.90;;;3.33;;
62931;SDS011;49037;41.898;25.004;2023-10-13T08:23:45;7.70;;;3.78;;
62931;SDS011;49037;41.898;25.004;2023-10-13T08:26:20;6.10;;;3.47;;
62931;SDS011;49037;41.898;25.004;2023-10-13T08:29:46;4.10;;;3.53;;
62931;SDS011;49037;41.898;25.004;2023-10-13T08:32:21;9.75;;;3.83;;
62931;SDS011;49037;41.898;25.004;2023-10-13T08:34:59;7.00;;;3.60;;
62931;SDS011;49037;41.898;25.004;2023-10-13T08:37:32;8.50;;;4.03;;
62931;SDS011;49037;41.898;25.004;2023-10-13T08:40:26;5.90;;;3.20;;
62931;SDS011;49037;41.898;25.004;2023-10-13T08:43:14;7.63;;;3.60;;
62931;SDS011;49037;41.898;25.004;2023-10-13T08:45:42;7.75;;;3.70;;
62931;SDS011;49037;41.898;25.004;2023-10-13T08:48:11;6.47;;;3.88;;
62931;SDS011;49037;41.898;25.004;2023-10-13T08:50:50;5.88;;;3.85;;
62931;SDS011;49037;41.898;25.004;2023-10-13T08:53:23;6.30;;;3.53;;
62931;SDS011;49037;41.898;25.004;2023-10-13T08:55:56;5.35;;;3.53;;
62931;SDS011;49037;41.898;25.004;2023-10-13T08:59:01;6.95;;;3.95;;
62931;SDS011;49037;41.898;25.004;2023-10-13T09:01:30;5.03;;;3.40;;
62931;SDS011;49037;41.898;25.004;2023-10-13T09:04:13;6.18;;;3.58;;
62931;SDS011;49037;41.898;25.004;2023-10-13T09:06:47;4.15;;;3.65;;
62931;SDS011;49037;41.898;25.004;2023-10-13T09:09:17;5.35;;;3.38;;
62931;SDS011;49037;41.898;25.004;2023-10-13T09:11:54;5.50;;;3.50;;
62931;SDS011;49037;41.898;25.004;2023-10-13T09:14:38;5.50;;;3.35;;
62931;SDS011;49037;41.898;25.004;2023-10-13T09:17:13;20.08;;;8.13;;
62931;SDS011;49037;41.898;25.004;2023-10-13T09:22:23;4.00;;;3.60;;
62931;SDS011;49037;41.898;25.004;2023-10-13T09:25:03;4.60;;;3.50;;
62931;SDS011;49037;41.898;25.004;2023-10-13T09:27:38;6.68;;;4.05;;
62931;SDS011;49037;41.898;25.004;2023-10-13T09:30:04;6.40;;;4.15;;
62931;SDS011;49037;41.898;25.004;2023-10-13T09:32:46;5.95;;;3.88;;
62931;SDS011;49037;41.898;25.004;2023-10-13T09:35:22;7.18;;;3.40;;
62931;SDS011;49037;41.898;25.004;2023-10-13T09:40:49;6.15;;;3.75;;
62931;SDS011;49037;41.898;25.004;2023-10-13T09:43:22;8.13;;;3.55;;
62931;SDS011;49037;41.898;25.004;2023-10-13T09:45:50;5.75;;;3.90;;
62931;SDS011;49037;41.898;25.004;2023-10-13T09:48:39;6.63;;;4.10;;
62931;SDS011;49037;41.898;25.004;2023-10-13T09:51:26;5.70;;;3.70;;
62931;SDS011;49037;41.898;25.004;2023-10-13T09:53:52;5.63;;;3.67;;
62931;SDS011;49037;41.898;25.004;2023-10-13T09:56:37;4.68;;;3.70;;
62931;SDS011;49037;41.898;25.004;2023-10-13T09:59:35;5.93;;;3.80;;
62931;SDS011;49037;41.898;25.004;2023-10-13T10:02:20;6.93;;;4.32;;
62931;SDS011;49037;41.898;25.004;2023-10-13T10:04:52;6.25;;;3.75;;
62931;SDS011;49037;41.898;25.004;2023-10-13T10:10:21;4.50;;;3.80;;
62931;SDS011;49037;41.898;25.004;2023-10-13T10:13:01;6.72;;;3.78;;
62931;SDS011;49037;41.898;25.004;2023-10-13T10:15:40;5.50;;;3.67;;
62931;SDS011;49037;41.898;25.004;2023-10-13T10:18:27;8.98;;;4.13;;
62931;SDS011;49037;41.898;25.004;2023-10-13T10:21:04;9.52;;;4.47;;
62931;SDS011;49037;41.898;25.004;2023-10-13T10:23:34;9.40;;;4.40;;
62931;SDS011;49037;41.898;25.004;2023-10-13T10:26:10;5.63;;;3.83;;
62931;SDS011;49037;41.898;25.004;2023-10-13T10:28:54;7.40;;;3.78;;
62931;SDS011;49037;41.898;25.004;2023-10-13T10:31:20;4.63;;;3.70;;
62931;SDS011;49037;41.898;25.004;2023-10-13T10:34:10;5.72;;;3.47;;
62931;SDS011;49037;41.898;25.004;2023-10-13T10:36:53;5.57;;;4.13;;
62931;SDS011;49037;41.898;25.004;2023-10-13T10:39:35;5.85;;;4.00;;
62931;SDS011;49037;41.898;25.004;2023-10-13T10:42:14;8.00;;;4.07;;
62931;SDS011;49037;41.898;25.004;2023-10-13T10:44:56;5.32;;;3.63;;
62931;SDS011;49037;41.898;25.004;2023-10-13T10:47:30;5.25;;;3.70;;
62931;SDS011;49037;41.898;25.004;2023-10-13T10:49:59;5.18;;;3.80;;
62931;SDS011;49037;41.898;25.004;2023-10-13T10:52:45;9.20;;;4.13;;
62931;SDS011;49037;41.898;25.004;2023-10-13T10:55:12;7.93;;;4.25;;
62931;SDS011;49037;41.898;25.004;2023-10-13T10:57:44;4.78;;;3.47;;
62931;SDS011;49037;41.898;25.004;2023-10-13T11:01:03;6.82;;;3.70;;
62931;SDS011;49037;41.898;25.004;2023-10-13T11:03:35;3.97;;;3.50;;
62931;SDS011;49037;41.898;25.004;2023-10-13T11:06:03;5.50;;;4.00;;
62931;SDS011;49037;41.898;25.004;2023-10-13T11:11:45;5.05;;;4.10;;
62931;SDS011;49037;41.898;25.004;2023-10-13T11:14:29;7.30;;;3.70;;
62931;SDS011;49037;41.898;25.004;2023-10-13T11:16:58;5.22;;;3.38;;
62931;SDS011;49037;41.898;25.004;2023-10-13T11:19:47;7.82;;;3.75;;
62931;SDS011;49037;41.898;25.004;2023-10-13T11:22:38;5.95;;;3.72;;
62931;SDS011;49037;41.898;25.004;2023-10-13T11:25:19;4.63;;;3.40;;
62931;SDS011;49037;41.898;25.004;2023-10-13T11:27:57;6.40;;;3.78;;
62931;SDS011;49037;41.898;25.004;2023-10-13T11:30:24;7.72;;;3.60;;
62931;SDS011;49037;41.898;25.004;2023-10-13T11:33:14;4.88;;;3.22;;
62931;SDS011;49037;41.898;25.004;2023-10-13T11:35:44;6.10;;;3.20;;
62931;SDS011;49037;41.898;25.004;2023-10-13T11:38:22;4.35;;;3.35;;
62931;SDS011;49037;41.898;25.004;2023-10-13T11:40:59;3.83;;;3.25;;
62931;SDS011;49037;41.898;25.004;2023-10-13T11:43:32;5.85;;;3.67;;
62931;SDS011;49037;41.898;25.004;2023-10-13T11:49:20;7.07;;;3.65;;
62931;SDS011;49037;41.898;25.004;2023-10-13T11:51:52;5.28;;;3.70;;
62931;SDS011;49037;41.898;25.004;2023-10-13T11:54:38;6.78;;;3.63;;
62931;SDS011;49037;41.898;25.004;2023-10-13T11:59:32;6.70;;;3.42;;
62931;SDS011;49037;41.898;25.004;2023-10-13T12:02:21;5.05;;;3.53;;
62931;SDS011;49037;41.898;25.004;2023-10-13T12:04:58;3.67;;;3.00;;
62931;SDS011;49037;41.898;25.004;2023-10-13T12:07:24;5.70;;;3.38;;
62931;SDS011;49037;41.898;25.004;2023-10-13T12:10:10;5.28;;;3.22;;
62931;SDS011;49037;41.898;25.004;2023-10-13T12:12:56;3.67;;;3.10;;
62931;SDS011;49037;41.898;25.004;2023-10-13T12:15:23;4.65;;;3.30;;
62931;SDS011;49037;41.898;25.004;2023-10-13T12:18:01;4.43;;;3.20;;
62931;SDS011;49037;41.898;25.004;2023-10-13T12:20:49;4.78;;;3.40;;
62931;SDS011;49037;41.898;25.004;2023-10-13T12:23:24;5.80;;;3.58;;
62931;SDS011;49037;41.898;25.004;2023-10-13T12:25:56;5.32;;;3.53;;
62931;SDS011;49037;41.898;25.004;2023-10-13T12:28:47;4.97;;;3.78;;
62931;SDS011;49037;41.898;25.004;2023-10-13T12:31:22;6.60;;;3.58;;
62931;SDS011;49037;41.898;25.004;2023-10-13T12:33:57;4.85;;;3.47;;
62931;SDS011;49037;41.898;25.004;2023-10-13T12:37:02;8.10;;;4.25;;
62931;SDS011;49037;41.898;25.004;2023-10-13T12:40:26;7.45;;;3.75;;
62931;SDS011;49037;41.898;25.004;2023-10-13T12:43:10;8.18;;;3.55;;
62931;SDS011;49037;41.898;25.004;2023-10-13T12:48:58;4.38;;;3.63;;
62931;SDS011;49037;41.898;25.004;2023-10-13T12:51:42;4.80;;;3.38;;
62931;SDS011;49037;41.898;25.004;2023-10-13T12:54:18;5.15;;;3.78;;
62931;SDS011;49037;41.898;25.004;2023-10-13T12:56:49;4.90;;;4.10;;
62931;SDS011;49037;41.898;25.004;2023-10-13T12:59:24;11.10;;;4.78;;
62931;SDS011;49037;41.898;25.004;2023-10-13T13:01:56;7.38;;;3.70;;
62931;SDS011;49037;41.898;25.004;2023-10-13T13:04:24;7.07;;;3.22;;
62931;SDS011;49037;41.898;25.004;2023-10-13T13:06:53;7.40;;;3.50;;
62931;SDS011;49037;41.898;25.004;2023-10-13T13:09:39;5.57;;;3.15;;
62931;SDS011;49037;41.898;25.004;2023-10-13T13:12:28;6.90;;;4.20;;
62931;SDS011;49037;41.898;25.004;2023-10-13T13:15:08;6.60;;;3.25;;
62931;SDS011;49037;41.898;25.004;2023-10-13T13:17:54;9.23;;;3.67;;
62931;SDS011;49037;41.898;25.004;2023-10-13T13:20:20;6.22;;;3.97;;
62931;SDS011;49037;41.898;25.004;2023-10-13T13:23:01;6.88;;;3.97;;
62931;SDS011;49037;41.898;25.004;2023-10-13T13:27:25;6.07;;;3.85;;
62931;SDS011;49037;41.898;25.004;2023-10-13T13:29:52;4.10;;;3.20;;
62931;SDS011;49037;41.898;25.004;2023-10-13T13:32:20;6.47;;;4.07;;
62931;SDS011;49037;41.898;25.004;2023-10-13T13:34:53;6.28;;;3.60;;
62931;SDS011;49037;41.898;25.004;2023-10-13T13:37:49;6.45;;;3.78;;
62931;SDS011;49037;41.898;25.004;2023-10-13T13:40:15;6.80;;;3.55;;
62931;SDS011;49037;41.898;25.004;2023-10-13T13:42:44;6.45;;;3.90;;
62931;SDS011;49037;41.898;25.004;2023-10-13T13:45:17;7.53;;;3.85;;
62931;SDS011;49037;41.898;25.004;2023-10-13T13:47:49;5.03;;;3.38;;
62931;SDS011;49037;41.898;25.004;2023-10-13T13:53:54;8.05;;;3.03;;
62931;SDS011;49037;41.898;25.004;2023-10-13T13:56:20;7.43;;;3.00;;
62931;SDS011;49037;41.898;25.004;2023-10-13T13:58:49;4.28;;;2.97;;
62931;SDS011;49037;41.898;25.004;2023-10-13T14:03:32;4.43;;;3.00;;
62931;SDS011;49037;41.898;25.004;2023-10-13T14:05:58;4.70;;;3.30;;
62931;SDS011;49037;41.898;25.004;2023-10-13T14:08:56;4.75;;;2.80;;
62931;SDS011;49037;41.898;25.004;2023-10-13T14:12:00;6.05;;;2.70;;
62931;SDS011;49037;41.898;25.004;2023-10-13T14:14:44;7.35;;;3.38;;
62931;SDS011;49037;41.898;25.004;2023-10-13T14:17:40;5.70;;;3.17;;
62931;SDS011;49037;41.898;25.004;2023-10-13T14:20:08;5.85;;;3.33;;
62931;SDS011;49037;41.898;25.004;2023-10-13T14:22:40;4.82;;;3.33;;
62931;SDS011;49037;41.898;25.004;2023-10-13T14:25:26;5.20;;;2.85;;
62931;SDS011;49037;41.898;25.004;2023-10-13T14:27:53;7.10;;;2.92;;
62931;SDS011;49037;41.898;25.004;2023-10-13T14:30:23;3.72;;;2.90;;
62931;SDS011;49037;41.898;25.004;2023-10-13T14:32:51;5.78;;;2.80;;
62931;SDS011;49037;41.898;25.004;2023-10-13T14:35:17;3.70;;;2.60;;
62931;SDS011;49037;41.898;25.004;2023-10-13T14:45:25;4.03;;;2.78;;
62931;SDS011;49037;41.898;25.004;2023-10-13T14:48:11;6.40;;;2.95;;
62931;SDS011;49037;41.898;25.004;2023-10-13T14:51:20;3.85;;;3.00;;
62931;SDS011;49037;41.898;25.004;2023-10-13T14:53:46;4.13;;;2.80;;
62931;SDS011;49037;41.898;25.004;2023-10-13T14:56:14;6.28;;;3.10;;
62931;SDS011;49037;41.898;25.004;2023-10-13T14:58:50;5.22;;;3.15;;
62931;SDS011;49037;41.898;25.004;2023-10-13T15:04:02;3.88;;;2.70;;
62931;SDS011;49037;41.898;25.004;2023-10-13T15:06:29;3.78;;;2.42;;
62931;SDS011;49037;41.898;25.004;2023-10-13T15:10:27;5.47;;;2.70;;
62931;SDS011;49037;41.898;25.004;2023-10-13T15:15:44;4.75;;;2.45;;
62931;SDS011;49037;41.898;25.004;2023-10-13T15:18:13;3.33;;;2.38;;
62931;SDS011;49037;41.898;25.004;2023-10-13T15:20:39;3.92;;;2.50;;
62931;SDS011;49037;41.898;25.004;2023-10-13T15:23:08;3.60;;;2.80;;
62931;SDS011;49037;41.898;25.004;2023-10-13T15:26:54;4.45;;;2.80;;
62931;SDS011;49037;41.898;25.004;2023-10-13T15:29:27;5.75;;;2.42;;
62931;SDS011;49037;41.898;25.004;2023-10-13T15:32:00;5.18;;;2.83;;
62931;SDS011;49037;41.898;25.004;2023-10-13T15:35:38;2.80;;;2.33;;
62931;SDS011;49037;41.898;25.004;2023-10-13T15:39:04;4.03;;;2.70;;
62931;SDS011;49037;41.898;25.004;2023-10-13T15:42:35;2.33;;;2.15;;
62931;SDS011;49037;41.898;25.004;2023-10-13T15:45:07;5.55;;;2.92;;
62931;SDS011;49037;41.898;25.004;2023-10-13T15:50:14;3.50;;;2.45;;
62931;SDS011;49037;41.898;25.004;2023-10-13T15:52:46;4.45;;;2.50;;
62931;SDS011;49037;41.898;25.004;2023-10-13T16:04:59;4.07;;;3.00;;
62931;SDS011;49037;41.898;25.004;2023-10-13T16:07:25;5.05;;;2.45;;
62931;SDS011;49037;41.898;25.004;2023-10-13T16:10:29;3.17;;;2.30;;
62931;SDS011;49037;41.898;25.004;2023-10-13T16:14:06;5.13;;;2.53;;
62931;SDS011;49037;41.898;25.004;2023-10-13T16:16:36;4.93;;;2.50;;
62931;SDS011;49037;41.898;25.004;2023-10-13T16:26:38;3.30;;;2.85;;
62931;SDS011;49037;41.898;25.004;2023-10-13T16:36:15;2.70;;;2.50;;
62931;SDS011;49037;41.898;25.004;2023-10-13T16:40:44;4.38;;;2.83;;
62931;SDS011;49037;41.898;25.004;2023-10-13T16:55:42;4.90;;;2.75;;
62931;SDS011;49037;41.898;25.004;2023-10-13T16:58:11;3.38;;;2.55;;
62931;SDS011;49037;41.898;25.004;2023-10-13T17:00:41;4.60;;;2.70;;
62931;SDS011;49037;41.898;25.004;2023-10-13T17:05:41;4.35;;;2.60;;
62931;SDS011;49037;41.898;25.004;2023-10-13T17:08:50;2.92;;;2.40;;
62931;SDS011;49037;41.898;25.004;2023-10-13T17:16:19;5.10;;;2.58;;
62931;SDS011;49037;41.898;25.004;2023-10-13T17:22:06;2.65;;;2.30;;
62931;SDS011;49037;41.898;25.004;2023-10-13T17:24:34;5.47;;;2.60;;
62931;SDS011;49037;41.898;25.004;2023-10-13T17:40:11;3.70;;;2.30;;
62931;SDS011;49037;41.898;25.004;2023-10-13T17:43:02;4.07;;;2.47;;
62931;SDS011;49037;41.898;25.004;2023-10-13T17:53:27;5.00;;;2.85;;
62931;SDS011;49037;41.898;25.004;2023-10-13T17:56:11;4.28;;;2.60;;
62931;SDS011;49037;41.898;25.004;2023-10-13T17:59:53;5.22;;;2.90;;